Dirección General De Aeronáutica Civil

Dirección Meteorológica de Chile - Servicios Climáticos

Informe General de Control de Calidad de la Estación

Listado de niveles de control de calidad para algunos parámetros
Estación Collipulli (380064)
Fecha de Revisión de los datos :

Elementos

Registros Niveles de Control Total
Nivel 0 Nivel 1 Nivel 2 Nivel 3 Errores Porcentaje
01 Temperatura del Aire Seco 116.067 0 . 376 0.32 % 0 . 0 . 376 0.32 %
02 Temperatura de Rocío 115.740 0 . 0 . 0 . 0 . 0 0.00 %
03 Humedad Relativa del Aire 116.067 0 . 0 . 0 . 0 . 0 0.00 %
04 Temperatura Máxima PM 624 0 . 0 . 0 . 0 . 0 0.00 %
05 Temperatura Mínima AM 610 0 . 0 . 0 . 0 . 0 0.00 %
06 Agua Caida, Acumulada 6 Horas 20.616 0 . 0 . 0 . 0 . 0 0.00 %
07 Presión Atm. a Nivel de Estación (QFE) 114.911 0 . 0 . 0 . 0 . 0 0.00 %
08 Presión Atm. a Nivel Medio del Mar (QFF) 14.621 0 . 0 . 0 . 0 . 0 0.00 %
09 Presión Atm. Estándar OACI (QNH) 14.620 0 . 0 . 0 . 0 . 0 0.00 %

Totales

513.876 . 0.0000 % . 0.0732 % . 0.0000 % . 0.0000 % 376 0.0732 %

Detalle de Errores Encontrados

Nivel Fecha del Dato Descripción Información Error Fecha Ingreso
1 2018-04-20 07:00:00 Ts debe ser mayor o igual a Td Ts=6.9 - Td=7.0 2023-11-20 05:14:00
1 2018-05-02 07:00:00 Ts debe ser mayor o igual a Td Ts=9.3 - Td=9.4 2023-11-20 05:14:00
1 2018-05-02 11:00:00 Ts debe ser mayor o igual a Td Ts=10.6 - Td=10.7 2023-11-20 05:14:00
1 2018-05-03 07:00:00 Ts debe ser mayor o igual a Td Ts=10.3 - Td=10.4 2023-11-20 05:14:00
1 2018-05-14 13:00:00 Ts debe ser mayor o igual a Td Ts=8.7 - Td=8.8 2023-11-20 05:15:00
1 2018-05-17 05:00:00 Ts debe ser mayor o igual a Td Ts=7.5 - Td=7.6 2023-11-20 05:15:00
1 2018-05-17 06:00:00 Ts debe ser mayor o igual a Td Ts=7.7 - Td=7.8 2023-11-20 05:15:00
1 2018-05-17 12:00:00 Ts debe ser mayor o igual a Td Ts=8.8 - Td=8.9 2023-11-20 05:15:00
1 2018-05-17 19:00:00 Ts debe ser mayor o igual a Td Ts=10.7 - Td=10.8 2023-11-20 05:15:00
1 2018-05-18 04:00:00 Ts debe ser mayor o igual a Td Ts=8.7 - Td=8.8 2023-11-20 05:15:00
1 2018-05-18 08:00:00 Ts debe ser mayor o igual a Td Ts=8.4 - Td=8.5 2023-11-20 05:15:00
1 2018-05-20 13:00:00 Ts debe ser mayor o igual a Td Ts=8.6 - Td=8.7 2023-11-20 05:15:00
1 2018-05-26 20:00:00 Ts debe ser mayor o igual a Td Ts=8.5 - Td=8.6 2023-11-20 05:15:00
1 2018-05-26 22:00:00 Ts debe ser mayor o igual a Td Ts=8.4 - Td=8.5 2023-11-20 05:15:00
1 2018-05-26 23:00:00 Ts debe ser mayor o igual a Td Ts=8.5 - Td=8.6 2023-11-20 05:15:00
1 2018-05-27 00:00:00 Ts debe ser mayor o igual a Td Ts=8.7 - Td=8.8 2023-11-20 05:15:00
1 2018-05-27 01:00:00 Ts debe ser mayor o igual a Td Ts=8.8 - Td=8.9 2023-11-20 05:15:00
1 2018-05-28 13:00:00 Ts debe ser mayor o igual a Td Ts=8.8 - Td=8.9 2023-11-20 05:15:00
1 2018-05-28 23:00:00 Ts debe ser mayor o igual a Td Ts=8.4 - Td=8.5 2023-11-20 05:15:00
1 2018-05-29 06:00:00 Ts debe ser mayor o igual a Td Ts=8.4 - Td=8.5 2023-11-20 05:15:00
1 2018-05-29 07:00:00 Ts debe ser mayor o igual a Td Ts=7.7 - Td=7.8 2023-11-20 05:15:00
1 2018-05-29 08:00:00 Ts debe ser mayor o igual a Td Ts=7.7 - Td=7.8 2023-11-20 05:15:00
1 2018-06-18 01:00:00 Ts debe ser mayor o igual a Td Ts=8.8 - Td=8.9 2023-11-20 05:15:00
1 2018-06-18 06:00:00 Ts debe ser mayor o igual a Td Ts=7.0 - Td=7.1 2023-11-20 05:15:00
1 2018-06-18 07:00:00 Ts debe ser mayor o igual a Td Ts=7.5 - Td=7.6 2023-11-20 05:15:00
1 2018-06-19 01:00:00 Ts debe ser mayor o igual a Td Ts=7.1 - Td=7.2 2023-11-20 05:15:00
1 2018-06-19 02:00:00 Ts debe ser mayor o igual a Td Ts=8.8 - Td=8.9 2023-11-20 05:15:00
1 2018-06-23 02:00:00 Ts debe ser mayor o igual a Td Ts=7.5 - Td=7.6 2023-11-20 05:15:00
1 2018-06-26 02:00:00 Ts debe ser mayor o igual a Td Ts=7.7 - Td=7.8 2023-11-20 05:15:00
1 2018-06-26 17:00:00 Ts debe ser mayor o igual a Td Ts=8.7 - Td=8.8 2023-11-20 05:15:00
1 2018-06-26 20:00:00 Ts debe ser mayor o igual a Td Ts=9.3 - Td=9.4 2023-11-20 05:15:00
1 2018-06-28 07:00:00 Ts debe ser mayor o igual a Td Ts=5.7 - Td=5.8 2023-11-20 05:15:00
1 2018-06-29 15:00:00 Ts debe ser mayor o igual a Td Ts=8.3 - Td=8.4 2023-11-20 05:15:00
1 2018-06-29 17:00:00 Ts debe ser mayor o igual a Td Ts=9.0 - Td=9.1 2023-11-20 05:15:00
1 2018-06-29 19:00:00 Ts debe ser mayor o igual a Td Ts=10.3 - Td=10.4 2023-11-20 05:15:00
1 2018-06-29 21:00:00 Ts debe ser mayor o igual a Td Ts=10.7 - Td=10.8 2023-11-20 05:15:00
1 2018-06-30 12:00:00 Ts debe ser mayor o igual a Td Ts=9.1 - Td=9.2 2023-11-20 05:15:00
1 2018-06-30 13:00:00 Ts debe ser mayor o igual a Td Ts=9.2 - Td=9.3 2023-11-20 05:15:00
1 2018-07-01 02:00:00 Ts debe ser mayor o igual a Td Ts=7.7 - Td=7.8 2023-11-20 05:15:00
1 2018-07-01 04:00:00 Ts debe ser mayor o igual a Td Ts=7.5 - Td=7.6 2023-11-20 05:15:00
1 2018-07-01 13:00:00 Ts debe ser mayor o igual a Td Ts=7.3 - Td=7.4 2023-11-20 05:15:00
1 2018-07-01 14:00:00 Ts debe ser mayor o igual a Td Ts=7.8 - Td=7.9 2023-11-20 05:15:00
1 2018-07-01 21:00:00 Ts debe ser mayor o igual a Td Ts=8.9 - Td=9.0 2023-11-20 05:15:00
1 2018-07-01 22:00:00 Ts debe ser mayor o igual a Td Ts=8.7 - Td=8.8 2023-11-20 05:15:00
1 2018-07-01 23:00:00 Ts debe ser mayor o igual a Td Ts=8.6 - Td=8.7 2023-11-20 05:15:00
1 2018-07-02 00:00:00 Ts debe ser mayor o igual a Td Ts=8.3 - Td=8.4 2023-11-20 05:15:00
1 2018-07-02 02:00:00 Ts debe ser mayor o igual a Td Ts=7.6 - Td=7.7 2023-11-20 05:15:00
1 2018-07-02 06:00:00 Ts debe ser mayor o igual a Td Ts=8.1 - Td=8.2 2023-11-20 05:15:00
1 2018-07-15 06:00:00 Ts debe ser mayor o igual a Td Ts=4.8 - Td=4.9 2023-11-20 05:15:00
1 2018-07-30 09:00:00 Ts debe ser mayor o igual a Td Ts=5.6 - Td=5.7 2023-11-20 05:16:00
1 2018-08-05 12:00:00 Ts debe ser mayor o igual a Td Ts=7.3 - Td=7.4 2023-11-20 05:16:00
1 2018-08-06 00:00:00 Ts debe ser mayor o igual a Td Ts=8.7 - Td=8.8 2023-11-20 05:16:00
1 2018-08-06 03:00:00 Ts debe ser mayor o igual a Td Ts=9.1 - Td=9.2 2023-11-20 05:16:00
1 2018-08-06 04:00:00 Ts debe ser mayor o igual a Td Ts=9.0 - Td=9.1 2023-11-20 05:16:00
1 2018-08-06 05:00:00 Ts debe ser mayor o igual a Td Ts=9.0 - Td=9.1 2023-11-20 05:16:00
1 2018-08-06 06:00:00 Ts debe ser mayor o igual a Td Ts=9.0 - Td=9.1 2023-11-20 05:16:00
1 2018-08-06 07:00:00 Ts debe ser mayor o igual a Td Ts=8.9 - Td=9.0 2023-11-20 05:16:00
1 2018-08-06 08:00:00 Ts debe ser mayor o igual a Td Ts=8.8 - Td=8.9 2023-11-20 05:16:00
1 2018-08-06 09:00:00 Ts debe ser mayor o igual a Td Ts=8.6 - Td=8.7 2023-11-20 05:16:00
1 2018-08-17 14:00:00 Ts debe ser mayor o igual a Td Ts=8.3 - Td=8.4 2023-11-20 05:16:00
1 2018-08-17 15:00:00 Ts debe ser mayor o igual a Td Ts=8.4 - Td=8.5 2023-11-20 05:16:00
1 2018-08-17 16:00:00 Ts debe ser mayor o igual a Td Ts=8.8 - Td=8.9 2023-11-20 05:16:00
1 2018-09-03 07:00:00 Ts debe ser mayor o igual a Td Ts=6.9 - Td=7.0 2023-11-20 05:16:00
1 2018-09-03 09:00:00 Ts debe ser mayor o igual a Td Ts=5.6 - Td=5.7 2023-11-20 05:16:00
1 2018-09-17 13:00:00 Ts debe ser mayor o igual a Td Ts=8.7 - Td=8.8 2023-11-20 05:16:00
1 2018-09-17 16:00:00 Ts debe ser mayor o igual a Td Ts=9.3 - Td=9.4 2023-11-20 05:16:00
1 2018-09-18 03:00:00 Ts debe ser mayor o igual a Td Ts=10.4 - Td=10.5 2023-11-20 05:16:00
1 2018-09-19 03:00:00 Ts debe ser mayor o igual a Td Ts=7.4 - Td=7.5 2023-11-20 05:16:00
1 2018-09-19 11:00:00 Ts debe ser mayor o igual a Td Ts=7.4 - Td=7.5 2023-11-20 05:16:00
1 2018-09-19 12:00:00 Ts debe ser mayor o igual a Td Ts=7.7 - Td=7.8 2023-11-20 05:16:00
1 2018-09-20 04:00:00 Ts debe ser mayor o igual a Td Ts=7.7 - Td=7.8 2023-11-20 05:16:00
1 2018-09-20 20:00:00 Ts debe ser mayor o igual a Td Ts=8.5 - Td=8.6 2023-11-20 05:16:00
1 2018-09-21 00:00:00 Ts debe ser mayor o igual a Td Ts=8.5 - Td=8.6 2023-11-20 05:16:00
1 2018-09-21 08:00:00 Ts debe ser mayor o igual a Td Ts=9.4 - Td=9.5 2023-11-20 05:16:00
1 2018-09-21 09:00:00 Ts debe ser mayor o igual a Td Ts=9.4 - Td=9.5 2023-11-20 05:16:00
1 2018-09-22 07:00:00 Ts debe ser mayor o igual a Td Ts=9.2 - Td=9.3 2023-11-20 05:16:00
1 2018-09-22 09:00:00 Ts debe ser mayor o igual a Td Ts=7.6 - Td=7.7 2023-11-20 05:16:00
1 2018-09-29 04:00:00 Ts debe ser mayor o igual a Td Ts=9.0 - Td=9.1 2023-11-20 05:16:00
1 2018-09-29 05:00:00 Ts debe ser mayor o igual a Td Ts=8.8 - Td=8.9 2023-11-20 05:16:00
1 2018-09-29 06:00:00 Ts debe ser mayor o igual a Td Ts=8.8 - Td=8.9 2023-11-20 05:16:00
1 2018-10-06 12:00:00 Ts debe ser mayor o igual a Td Ts=8.5 - Td=8.6 2023-11-20 05:17:00
1 2018-10-07 12:00:00 Ts debe ser mayor o igual a Td Ts=7.6 - Td=7.7 2023-11-20 05:17:00
1 2018-10-08 07:00:00 Ts debe ser mayor o igual a Td Ts=7.5 - Td=7.6 2023-11-20 05:17:00
1 2018-10-08 10:00:00 Ts debe ser mayor o igual a Td Ts=7.5 - Td=7.6 2023-11-20 05:17:00
1 2018-10-17 14:00:00 Ts debe ser mayor o igual a Td Ts=7.2 - Td=7.3 2023-11-20 05:17:00
1 2018-10-24 12:00:00 Ts debe ser mayor o igual a Td Ts=7.2 - Td=7.3 2023-11-20 05:17:00
1 2018-10-29 06:00:00 Ts debe ser mayor o igual a Td Ts=12.3 - Td=12.4 2023-11-20 05:17:00
1 2018-10-29 07:00:00 Ts debe ser mayor o igual a Td Ts=12.2 - Td=12.3 2023-11-20 05:17:00
1 2018-10-30 10:00:00 Ts debe ser mayor o igual a Td Ts=9.3 - Td=9.4 2023-11-20 05:17:00
1 2018-11-02 23:00:00 Ts debe ser mayor o igual a Td Ts=10.5 - Td=10.6 2023-11-20 05:17:00
1 2018-11-03 04:00:00 Ts debe ser mayor o igual a Td Ts=8.2 - Td=8.3 2023-11-20 05:17:00
1 2018-11-03 05:00:00 Ts debe ser mayor o igual a Td Ts=8.5 - Td=8.6 2023-11-20 05:17:00
1 2018-11-03 10:00:00 Ts debe ser mayor o igual a Td Ts=8.5 - Td=8.6 2023-11-20 05:17:00
1 2018-11-10 06:00:00 Ts debe ser mayor o igual a Td Ts=12.4 - Td=12.5 2023-11-20 05:17:00
1 2018-11-10 11:00:00 Ts debe ser mayor o igual a Td Ts=12.6 - Td=12.7 2023-11-20 05:17:00
1 2018-11-13 08:00:00 Ts debe ser mayor o igual a Td Ts=6.9 - Td=7.0 2023-11-20 05:17:00
1 2018-11-22 06:00:00 Ts debe ser mayor o igual a Td Ts=7.2 - Td=7.3 2023-11-20 05:17:00
1 2018-12-14 07:00:00 Ts debe ser mayor o igual a Td Ts=7.2 - Td=7.3 2023-11-20 05:17:00
1 2018-12-14 08:00:00 Ts debe ser mayor o igual a Td Ts=7.3 - Td=7.4 2023-11-20 05:17:00
1 2018-12-14 10:00:00 Ts debe ser mayor o igual a Td Ts=7.4 - Td=7.5 2023-11-20 05:17:00
1 2018-12-14 11:00:00 Ts debe ser mayor o igual a Td Ts=8.3 - Td=8.4 2023-11-20 05:17:00
1 2019-01-09 08:00:00 Ts debe ser mayor o igual a Td Ts=10.3 - Td=10.4 2023-11-20 05:18:00
1 2019-04-19 12:00:00 Ts debe ser mayor o igual a Td Ts=9.0 - Td=9.1 2023-11-20 05:19:00
1 2019-04-20 07:00:00 Ts debe ser mayor o igual a Td Ts=11.6 - Td=11.7 2023-11-20 05:19:00
1 2019-04-20 13:00:00 Ts debe ser mayor o igual a Td Ts=10.8 - Td=10.9 2023-11-20 05:19:00
1 2019-04-22 08:00:00 Ts debe ser mayor o igual a Td Ts=7.2 - Td=7.3 2023-11-20 05:19:00
1 2019-04-26 05:00:00 Ts debe ser mayor o igual a Td Ts=8.6 - Td=8.7 2023-11-20 05:19:00
1 2019-04-26 06:00:00 Ts debe ser mayor o igual a Td Ts=8.8 - Td=8.9 2023-11-20 05:19:00
1 2019-04-26 07:00:00 Ts debe ser mayor o igual a Td Ts=8.3 - Td=8.4 2023-11-20 05:19:00
1 2019-04-28 14:00:00 Ts debe ser mayor o igual a Td Ts=13.1 - Td=13.2 2023-11-20 05:19:00
1 2019-05-02 16:00:00 Ts debe ser mayor o igual a Td Ts=13.0 - Td=13.1 2023-11-20 05:19:00
1 2019-05-03 00:00:00 Ts debe ser mayor o igual a Td Ts=13.3 - Td=13.4 2023-11-20 05:19:00
1 2019-05-03 01:00:00 Ts debe ser mayor o igual a Td Ts=13.2 - Td=13.3 2023-11-20 05:19:00
1 2019-05-03 15:00:00 Ts debe ser mayor o igual a Td Ts=11.4 - Td=11.5 2023-11-20 05:19:00
1 2019-05-03 16:00:00 Ts debe ser mayor o igual a Td Ts=11.6 - Td=11.7 2023-11-20 05:19:00
1 2019-05-03 21:00:00 Ts debe ser mayor o igual a Td Ts=11.6 - Td=11.7 2023-11-20 05:19:00
1 2019-05-04 02:00:00 Ts debe ser mayor o igual a Td Ts=11.8 - Td=11.9 2023-11-20 05:19:00
1 2019-05-04 10:00:00 Ts debe ser mayor o igual a Td Ts=11.7 - Td=11.8 2023-11-20 05:19:00
1 2019-05-06 12:00:00 Ts debe ser mayor o igual a Td Ts=8.1 - Td=8.2 2023-11-20 05:19:00
1 2019-05-16 10:00:00 Ts debe ser mayor o igual a Td Ts=9.4 - Td=9.5 2023-11-20 05:20:00
1 2019-05-17 15:00:00 Ts debe ser mayor o igual a Td Ts=10.3 - Td=10.4 2023-11-20 05:20:00
1 2019-05-27 06:00:00 Ts debe ser mayor o igual a Td Ts=9.4 - Td=9.5 2023-11-20 05:20:00
1 2019-05-27 07:00:00 Ts debe ser mayor o igual a Td Ts=9.3 - Td=9.4 2023-11-20 05:20:00
1 2019-05-27 08:00:00 Ts debe ser mayor o igual a Td Ts=9.3 - Td=9.4 2023-11-20 05:20:00
1 2019-05-27 13:00:00 Ts debe ser mayor o igual a Td Ts=9.4 - Td=9.5 2023-11-20 05:20:00
1 2019-05-28 04:00:00 Ts debe ser mayor o igual a Td Ts=7.7 - Td=7.8 2023-11-20 05:20:00
1 2019-05-28 10:00:00 Ts debe ser mayor o igual a Td Ts=7.6 - Td=7.7 2023-11-20 05:20:00
1 2019-06-05 00:00:00 Ts debe ser mayor o igual a Td Ts=8.6 - Td=8.7 2023-11-20 05:20:00
1 2019-06-05 01:00:00 Ts debe ser mayor o igual a Td Ts=8.9 - Td=9.0 2023-11-20 05:20:00
1 2019-06-05 09:00:00 Ts debe ser mayor o igual a Td Ts=10.4 - Td=10.5 2023-11-20 05:20:00
1 2019-06-05 13:00:00 Ts debe ser mayor o igual a Td Ts=10.7 - Td=10.8 2023-11-20 05:20:00
1 2019-06-09 12:00:00 Ts debe ser mayor o igual a Td Ts=7.8 - Td=7.9 2023-11-20 05:20:00
1 2019-06-12 07:00:00 Ts debe ser mayor o igual a Td Ts=8.2 - Td=8.3 2023-11-20 05:20:00
1 2019-06-13 09:00:00 Ts debe ser mayor o igual a Td Ts=5.6 - Td=5.7 2023-11-20 05:20:00
1 2019-06-23 10:00:00 Ts debe ser mayor o igual a Td Ts=8.6 - Td=8.7 2023-11-20 05:20:00
1 2019-06-23 15:00:00 Ts debe ser mayor o igual a Td Ts=9.1 - Td=9.2 2023-11-20 05:20:00
1 2019-06-27 06:00:00 Ts debe ser mayor o igual a Td Ts=7.0 - Td=7.1 2023-11-20 05:20:00
1 2019-06-27 07:00:00 Ts debe ser mayor o igual a Td Ts=7.2 - Td=7.3 2023-11-20 05:20:00
1 2019-06-27 08:00:00 Ts debe ser mayor o igual a Td Ts=7.2 - Td=7.3 2023-11-20 05:20:00
1 2019-06-27 11:00:00 Ts debe ser mayor o igual a Td Ts=7.3 - Td=7.4 2023-11-20 05:20:00
1 2019-06-27 14:00:00 Ts debe ser mayor o igual a Td Ts=6.9 - Td=7.0 2023-11-20 05:20:00
1 2019-06-28 04:00:00 Ts debe ser mayor o igual a Td Ts=7.8 - Td=7.9 2023-11-20 05:20:00
1 2019-06-28 05:00:00 Ts debe ser mayor o igual a Td Ts=7.1 - Td=7.2 2023-11-20 05:20:00
1 2019-06-28 07:00:00 Ts debe ser mayor o igual a Td Ts=5.7 - Td=5.8 2023-11-20 05:20:00
1 2019-06-29 12:00:00 Ts debe ser mayor o igual a Td Ts=5.6 - Td=5.7 2023-11-20 05:20:00
1 2019-07-04 01:00:00 Ts debe ser mayor o igual a Td Ts=5.6 - Td=5.7 2023-11-20 05:20:00
1 2019-07-04 02:00:00 Ts debe ser mayor o igual a Td Ts=5.7 - Td=5.8 2023-11-20 05:20:00
1 2019-07-09 05:00:00 Ts debe ser mayor o igual a Td Ts=9.0 - Td=9.1 2023-11-20 05:20:00
1 2019-07-09 07:00:00 Ts debe ser mayor o igual a Td Ts=9.0 - Td=9.1 2023-11-20 05:20:00
1 2019-07-09 11:00:00 Ts debe ser mayor o igual a Td Ts=8.9 - Td=9.0 2023-11-20 05:20:00
1 2019-07-09 13:00:00 Ts debe ser mayor o igual a Td Ts=9.1 - Td=9.2 2023-11-20 05:20:00
1 2019-07-10 16:00:00 Ts debe ser mayor o igual a Td Ts=8.9 - Td=9.0 2023-11-20 05:20:00
1 2019-07-12 07:00:00 Ts debe ser mayor o igual a Td Ts=5.6 - Td=5.7 2023-11-20 05:20:00
1 2019-07-14 10:00:00 Ts debe ser mayor o igual a Td Ts=6.9 - Td=7.0 2023-11-20 05:20:00
1 2019-07-14 12:00:00 Ts debe ser mayor o igual a Td Ts=7.1 - Td=7.2 2023-11-20 05:20:00
1 2019-07-17 13:00:00 Ts debe ser mayor o igual a Td Ts=8.5 - Td=8.6 2023-11-20 05:20:00
1 2019-07-29 03:00:00 Ts debe ser mayor o igual a Td Ts=8.5 - Td=8.6 2023-11-20 05:21:00
1 2019-07-29 05:00:00 Ts debe ser mayor o igual a Td Ts=9.0 - Td=9.1 2023-11-20 05:21:00
1 2019-07-29 09:00:00 Ts debe ser mayor o igual a Td Ts=9.1 - Td=9.2 2023-11-20 05:21:00
1 2019-07-29 10:00:00 Ts debe ser mayor o igual a Td Ts=9.1 - Td=9.2 2023-11-20 05:21:00
1 2019-07-30 01:00:00 Ts debe ser mayor o igual a Td Ts=9.0 - Td=9.1 2023-11-20 05:21:00
1 2019-07-31 01:00:00 Ts debe ser mayor o igual a Td Ts=10.7 - Td=10.8 2023-11-20 05:21:00
1 2019-08-15 13:00:00 Ts debe ser mayor o igual a Td Ts=7.6 - Td=7.7 2023-11-20 05:21:00
1 2019-09-29 14:00:00 Ts debe ser mayor o igual a Td Ts=8.2 - Td=8.3 2023-11-20 05:21:00
1 2019-10-01 04:00:00 Ts debe ser mayor o igual a Td Ts=2.5 - Td=3.1 2023-11-08 10:07:00
1 2019-10-01 05:00:00 Ts debe ser mayor o igual a Td Ts=3.2 - Td=3.3 2023-11-08 10:07:00
1 2019-10-01 06:00:00 Ts debe ser mayor o igual a Td Ts=3.3 - Td=3.4 2023-11-08 10:07:00
1 2019-10-01 07:00:00 Ts debe ser mayor o igual a Td Ts=3.4 - Td=3.7 2023-11-08 10:07:00
1 2019-10-01 07:00:00 HR (Humedad Relativa) es igual a 100% y Ts <> Td 3.4 - 3.7 2023-11-08 10:07:00
1 2019-10-01 08:00:00 HR (Humedad Relativa) es igual a 100% y Ts <> Td 3.7 - 3.2 2023-11-08 10:07:00
1 2019-10-01 10:00:00 Ts debe ser mayor o igual a Td Ts=3.2 - Td=3.4 2023-11-08 10:07:00
1 2019-10-01 10:00:00 HR (Humedad Relativa) es igual a 100% y Ts <> Td 3.2 - 3.4 2023-11-08 10:07:00
1 2019-10-01 11:00:00 Ts debe ser mayor o igual a Td Ts=3.4 - Td=3.8 2023-11-08 10:07:00
1 2019-10-01 11:00:00 HR (Humedad Relativa) es igual a 100% y Ts <> Td 3.4 - 3.8 2023-11-08 10:07:00
1 2019-10-01 12:00:00 Ts debe ser mayor o igual a Td Ts=3.8 - Td=4.4 2023-11-08 10:07:00
1 2019-10-01 12:00:00 HR (Humedad Relativa) es igual a 100% y Ts <> Td 3.8 - 4.4 2023-11-08 10:07:00
1 2019-10-01 13:00:00 HR (Humedad Relativa) es igual a 100% y Ts <> Td 4.4 - 4.1 2023-11-08 10:07:00
1 2019-10-01 14:00:00 Ts debe ser mayor o igual a Td Ts=4.1 - Td=5.2 2023-11-08 10:07:00
1 2019-10-01 14:00:00 HR (Humedad Relativa) es igual a 100% y Ts <> Td 4.1 - 5.2 2023-11-08 10:07:00
1 2019-10-01 17:00:00 Ts debe ser mayor o igual a Td Ts=6.1 - Td=6.6 2023-11-08 10:07:00
1 2019-10-02 06:00:00 Ts debe ser mayor o igual a Td Ts=2.2 - Td=2.9 2023-11-08 10:07:00
1 2019-10-02 07:00:00 Ts debe ser mayor o igual a Td Ts=2.9 - Td=3.1 2023-11-08 10:07:00
1 2019-10-02 08:00:00 Ts debe ser mayor o igual a Td Ts=3.1 - Td=3.4 2023-11-08 10:07:00
1 2019-10-02 09:00:00 Ts debe ser mayor o igual a Td Ts=3.4 - Td=3.7 2023-11-08 10:07:00
1 2019-10-02 11:00:00 Ts debe ser mayor o igual a Td Ts=3.8 - Td=3.9 2023-11-08 10:07:00
1 2019-10-02 12:00:00 Ts debe ser mayor o igual a Td Ts=3.9 - Td=6.1 2023-11-08 10:07:00
1 2019-10-02 13:00:00 Ts debe ser mayor o igual a Td Ts=6.4 - Td=6.5 2023-11-08 10:07:00
1 2019-10-03 11:00:00 Ts debe ser mayor o igual a Td Ts=1.5 - Td=2.7 2023-11-08 10:07:00
1 2019-10-03 12:00:00 Ts debe ser mayor o igual a Td Ts=2.8 - Td=4.9 2023-11-08 10:07:00
1 2019-10-03 13:00:00 Ts debe ser mayor o igual a Td Ts=5.0 - Td=5.2 2023-11-08 10:07:00
1 2019-10-03 14:00:00 Ts debe ser mayor o igual a Td Ts=6.2 - Td=6.7 2023-11-08 10:07:00
1 2019-10-04 05:00:00 Ts debe ser mayor o igual a Td Ts=3.9 - Td=4.0 2023-11-08 10:07:00
1 2019-10-04 06:00:00 Ts debe ser mayor o igual a Td Ts=4.2 - Td=4.6 2023-11-08 10:07:00
1 2019-10-04 10:00:00 Ts debe ser mayor o igual a Td Ts=3.0 - Td=4.3 2023-11-08 10:07:00
1 2019-10-04 11:00:00 Ts debe ser mayor o igual a Td Ts=4.4 - Td=4.9 2023-11-08 10:07:00
1 2019-10-04 12:00:00 Ts debe ser mayor o igual a Td Ts=5.1 - Td=6.4 2023-11-08 10:07:00
1 2019-10-05 11:00:00 Ts debe ser mayor o igual a Td Ts=1.4 - Td=2.7 2023-11-08 10:07:00
1 2019-10-05 12:00:00 Ts debe ser mayor o igual a Td Ts=3.2 - Td=4.0 2023-11-08 10:07:00
1 2019-10-05 13:00:00 Ts debe ser mayor o igual a Td Ts=5.1 - Td=6.5 2023-11-08 10:07:00
1 2019-10-06 17:00:00 Ts debe ser mayor o igual a Td Ts=8.5 - Td=8.9 2023-11-08 10:07:00
1 2019-10-06 18:00:00 Ts debe ser mayor o igual a Td Ts=9.2 - Td=9.5 2023-11-08 10:07:00
1 2019-10-06 19:00:00 Ts debe ser mayor o igual a Td Ts=9.7 - Td=10.1 2023-11-08 10:07:00
1 2019-10-06 20:00:00 Ts debe ser mayor o igual a Td Ts=10.3 - Td=10.4 2023-11-08 10:07:00
1 2019-10-06 21:00:00 Ts debe ser mayor o igual a Td Ts=10.4 - Td=10.5 2023-11-08 10:07:00
1 2019-10-07 02:00:00 HR (Humedad Relativa) es igual a 100% y Ts <> Td 9.6 - 8.8 2023-11-08 10:07:00
1 2019-10-07 03:00:00 HR (Humedad Relativa) es igual a 100% y Ts <> Td 8.8 - 8.1 2023-11-08 10:07:00
1 2019-10-07 09:00:00 Ts debe ser mayor o igual a Td Ts=3.1 - Td=3.4 2023-11-08 10:07:00
1 2019-10-07 09:00:00 HR (Humedad Relativa) es igual a 100% y Ts <> Td 3.1 - 3.4 2023-11-08 10:07:00
1 2019-10-07 10:00:00 HR (Humedad Relativa) es igual a 100% y Ts <> Td 3.4 - 2.7 2023-11-08 10:07:00
1 2019-10-07 11:00:00 Ts debe ser mayor o igual a Td Ts=2.7 - Td=5.7 2023-11-08 10:07:00
1 2019-10-07 11:00:00 HR (Humedad Relativa) es igual a 100% y Ts <> Td 2.7 - 5.7 2023-11-08 10:07:00
1 2019-10-07 12:00:00 Ts debe ser mayor o igual a Td Ts=5.6 - Td=8.4 2023-11-08 10:07:00
1 2019-10-07 12:00:00 HR (Humedad Relativa) es igual a 100% y Ts <> Td 5.6 - 8.4 2023-11-08 10:07:00
1 2019-10-07 14:00:00 Ts debe ser mayor o igual a Td Ts=9.2 - Td=9.5 2023-11-08 10:07:00
1 2019-10-08 11:00:00 Ts debe ser mayor o igual a Td Ts=2.9 - Td=3.3 2023-11-08 10:07:00
1 2019-10-08 12:00:00 Ts debe ser mayor o igual a Td Ts=4.2 - Td=4.9 2023-11-08 10:07:00
1 2019-10-11 11:00:00 Ts debe ser mayor o igual a Td Ts=7.2 - Td=7.4 2023-11-08 10:07:00
1 2019-10-11 12:00:00 Ts debe ser mayor o igual a Td Ts=8.0 - Td=10.7 2023-11-08 10:07:00
1 2019-10-12 09:00:00 Ts debe ser mayor o igual a Td Ts=5.5 - Td=5.8 2023-11-08 10:07:00
1 2019-10-12 11:00:00 Ts debe ser mayor o igual a Td Ts=4.9 - Td=7.0 2023-11-08 10:07:00
1 2019-10-12 12:00:00 Ts debe ser mayor o igual a Td Ts=7.2 - Td=10.5 2023-11-08 10:07:00
1 2019-10-13 12:00:00 Ts debe ser mayor o igual a Td Ts=4.6 - Td=5.8 2023-11-08 10:07:00
1 2019-10-16 11:00:00 Ts debe ser mayor o igual a Td Ts=6.0 - Td=6.3 2023-11-08 10:07:00
1 2019-10-18 11:00:00 Ts debe ser mayor o igual a Td Ts=3.9 - Td=4.7 2023-11-08 10:07:00
1 2019-10-18 12:00:00 Ts debe ser mayor o igual a Td Ts=5.2 - Td=5.5 2023-11-08 10:07:00
1 2019-10-18 13:00:00 Ts debe ser mayor o igual a Td Ts=6.5 - Td=6.8 2023-11-08 10:07:00
1 2019-10-19 11:00:00 Ts debe ser mayor o igual a Td Ts=5.2 - Td=10.3 2023-11-08 10:07:00
1 2019-10-19 12:00:00 Ts debe ser mayor o igual a Td Ts=10.7 - Td=12.1 2023-11-08 10:07:00
1 2019-10-20 12:00:00 Ts debe ser mayor o igual a Td Ts=8.7 - Td=9.0 2023-11-08 10:07:00
1 2019-10-21 11:00:00 Ts debe ser mayor o igual a Td Ts=1.4 - Td=4.1 2023-11-08 10:07:00
1 2019-10-21 12:00:00 Ts debe ser mayor o igual a Td Ts=4.9 - Td=6.5 2023-11-08 10:07:00
1 2019-10-23 11:00:00 Ts debe ser mayor o igual a Td Ts=2.6 - Td=6.1 2023-11-08 10:07:00
1 2019-10-23 12:00:00 Ts debe ser mayor o igual a Td Ts=6.4 - Td=9.4 2023-11-08 10:07:00
1 2019-10-24 11:00:00 Ts debe ser mayor o igual a Td Ts=5.7 - Td=6.6 2023-11-08 10:07:00
1 2019-10-24 12:00:00 Ts debe ser mayor o igual a Td Ts=7.1 - Td=8.0 2023-11-08 10:07:00
1 2019-10-25 11:00:00 Ts debe ser mayor o igual a Td Ts=3.7 - Td=6.3 2023-11-08 10:07:00
1 2019-10-25 12:00:00 Ts debe ser mayor o igual a Td Ts=7.7 - Td=9.4 2023-11-08 10:07:00
1 2019-10-26 07:00:00 Ts debe ser mayor o igual a Td Ts=9.7 - Td=10.2 2023-11-08 10:07:00
1 2019-10-26 13:00:00 Ts debe ser mayor o igual a Td Ts=10.6 - Td=10.8 2023-11-08 10:07:00
1 2019-10-26 14:00:00 Ts debe ser mayor o igual a Td Ts=11.0 - Td=11.6 2023-11-08 10:07:00
1 2019-10-26 15:00:00 Ts debe ser mayor o igual a Td Ts=12.0 - Td=12.8 2023-11-08 10:07:00
1 2019-10-26 19:00:00 Ts debe ser mayor o igual a Td Ts=12.6 - Td=14.0 2023-11-08 10:07:00
1 2019-10-27 11:00:00 Ts debe ser mayor o igual a Td Ts=7.8 - Td=8.0 2023-11-08 10:07:00
1 2019-10-27 12:00:00 Ts debe ser mayor o igual a Td Ts=8.4 - Td=8.7 2023-11-08 10:07:00
1 2019-10-28 07:00:00 Ts debe ser mayor o igual a Td Ts=5.9 - Td=6.3 2023-11-08 10:07:00
1 2019-10-28 11:00:00 Ts debe ser mayor o igual a Td Ts=6.0 - Td=7.7 2023-11-08 10:07:00
1 2019-10-28 12:00:00 Ts debe ser mayor o igual a Td Ts=7.9 - Td=9.0 2023-11-08 10:07:00
1 2019-10-29 02:00:00 Ts debe ser mayor o igual a Td Ts=8.1 - Td=8.2 2023-11-08 10:07:00
1 2019-10-29 04:00:00 Ts debe ser mayor o igual a Td Ts=7.0 - Td=7.1 2023-11-08 10:07:00
1 2019-10-29 05:00:00 Ts debe ser mayor o igual a Td Ts=7.1 - Td=7.6 2023-11-08 10:07:00
1 2019-10-29 06:00:00 Ts debe ser mayor o igual a Td Ts=7.6 - Td=7.7 2023-11-08 10:07:00
1 2019-10-29 07:00:00 Ts debe ser mayor o igual a Td Ts=7.7 - Td=7.9 2023-11-08 10:07:00
1 2019-10-29 07:00:00 HR (Humedad Relativa) es igual a 100% y Ts <> Td 7.7 - 7.9 2023-11-08 10:07:00
1 2019-10-29 08:00:00 HR (Humedad Relativa) es igual a 100% y Ts <> Td 7.8 - 7.4 2023-11-08 10:07:00
1 2019-10-29 09:00:00 HR (Humedad Relativa) es igual a 100% y Ts <> Td 7.4 - 7.1 2023-11-08 10:07:00
1 2019-10-29 10:00:00 Ts debe ser mayor o igual a Td Ts=7.1 - Td=7.4 2023-11-08 10:07:00
1 2019-10-29 10:00:00 HR (Humedad Relativa) es igual a 100% y Ts <> Td 7.1 - 7.4 2023-11-08 10:07:00
1 2019-10-29 11:00:00 HR (Humedad Relativa) es igual a 100% y Ts <> Td 7.4 - 7.2 2023-11-08 10:07:00
1 2019-10-29 12:00:00 Ts debe ser mayor o igual a Td Ts=7.2 - Td=7.8 2023-11-08 10:07:00
1 2019-10-29 12:00:00 HR (Humedad Relativa) es igual a 100% y Ts <> Td 7.2 - 7.8 2023-11-08 10:07:00
1 2019-10-29 13:00:00 Ts debe ser mayor o igual a Td Ts=7.8 - Td=8.3 2023-11-08 10:07:00
1 2019-10-29 13:00:00 HR (Humedad Relativa) es igual a 100% y Ts <> Td 7.8 - 8.3 2023-11-08 10:07:00
1 2019-10-29 14:00:00 Ts debe ser mayor o igual a Td Ts=8.3 - Td=8.5 2023-11-08 10:07:00
1 2019-10-29 15:00:00 Ts debe ser mayor o igual a Td Ts=8.5 - Td=10.6 2023-11-08 10:07:00
1 2019-10-29 15:00:00 HR (Humedad Relativa) es igual a 100% y Ts <> Td 8.5 - 10.6 2023-11-08 10:07:00
1 2019-10-29 17:00:00 Ts debe ser mayor o igual a Td Ts=10.0 - Td=11.8 2023-11-08 10:07:00
1 2019-10-29 19:00:00 Ts debe ser mayor o igual a Td Ts=9.3 - Td=10.1 2023-11-08 10:07:00
1 2019-10-30 06:00:00 HR (Humedad Relativa) es igual a 100% y Ts <> Td 5.5 - 3.6 2023-11-08 10:07:00
1 2019-10-30 08:00:00 HR (Humedad Relativa) es igual a 100% y Ts <> Td 3.6 - 2.6 2023-11-08 10:07:00
1 2019-10-30 09:00:00 HR (Humedad Relativa) es igual a 100% y Ts <> Td 2.6 - 1.6 2023-11-08 10:07:00
1 2019-10-30 10:00:00 Ts debe ser mayor o igual a Td Ts=1.6 - Td=1.8 2023-11-08 10:07:00
1 2019-10-30 11:00:00 Ts debe ser mayor o igual a Td Ts=1.8 - Td=5.3 2023-11-08 10:07:00
1 2019-10-30 11:00:00 HR (Humedad Relativa) es igual a 100% y Ts <> Td 1.8 - 5.3 2023-11-08 10:07:00
1 2019-10-30 12:00:00 Ts debe ser mayor o igual a Td Ts=5.3 - Td=8.6 2023-11-08 10:07:00
1 2019-10-30 12:00:00 HR (Humedad Relativa) es igual a 100% y Ts <> Td 5.3 - 8.6 2023-11-08 10:07:00
1 2019-10-30 13:00:00 Ts debe ser mayor o igual a Td Ts=8.8 - Td=10.6 2023-11-08 10:07:00
1 2019-10-31 02:00:00 Ts debe ser mayor o igual a Td Ts=6.3 - Td=6.7 2023-11-08 10:07:00
1 2019-10-31 12:00:00 Ts debe ser mayor o igual a Td Ts=6.4 - Td=7.3 2023-11-08 10:07:00
1 2019-11-01 07:00:00 Ts debe ser mayor o igual a Td Ts=6.1 - Td=6.7 2023-11-08 10:07:00
1 2019-11-01 10:00:00 Ts debe ser mayor o igual a Td Ts=6.3 - Td=7.1 2023-11-08 10:07:00
1 2019-11-01 11:00:00 Ts debe ser mayor o igual a Td Ts=7.4 - Td=8.0 2023-11-08 10:07:00
1 2019-11-01 15:00:00 Ts debe ser mayor o igual a Td Ts=9.3 - Td=10.2 2023-11-08 10:07:00
1 2019-11-01 17:00:00 Ts debe ser mayor o igual a Td Ts=10.7 - Td=12.3 2023-11-08 10:07:00
1 2019-11-02 05:00:00 Ts debe ser mayor o igual a Td Ts=5.5 - Td=5.9 2023-11-08 10:07:00
1 2019-11-02 08:00:00 Ts debe ser mayor o igual a Td Ts=6.0 - Td=6.1 2023-11-08 10:07:00
1 2019-11-02 11:00:00 Ts debe ser mayor o igual a Td Ts=4.9 - Td=6.5 2023-11-08 10:07:00
1 2019-11-02 12:00:00 Ts debe ser mayor o igual a Td Ts=6.8 - Td=7.8 2023-11-08 10:07:00
1 2019-11-03 12:00:00 Ts debe ser mayor o igual a Td Ts=6.8 - Td=7.2 2023-11-08 10:07:00
1 2019-11-03 14:00:00 Ts debe ser mayor o igual a Td Ts=9.0 - Td=9.8 2023-11-08 10:07:00
1 2019-11-05 11:00:00 Ts debe ser mayor o igual a Td Ts=4.9 - Td=5.2 2023-11-08 10:07:00
1 2019-11-05 12:00:00 Ts debe ser mayor o igual a Td Ts=6.7 - Td=6.9 2023-11-08 10:07:00
1 2019-11-06 11:00:00 Ts debe ser mayor o igual a Td Ts=6.6 - Td=7.0 2023-11-08 10:07:00
1 2019-11-06 12:00:00 Ts debe ser mayor o igual a Td Ts=7.1 - Td=8.2 2023-11-08 10:07:00
1 2019-11-06 13:00:00 Ts debe ser mayor o igual a Td Ts=8.4 - Td=8.6 2023-11-08 10:07:00
1 2019-11-06 14:00:00 Ts debe ser mayor o igual a Td Ts=9.4 - Td=10.1 2023-11-08 10:07:00
1 2019-11-06 15:00:00 Ts debe ser mayor o igual a Td Ts=11.4 - Td=11.7 2023-11-08 10:07:00
1 2019-11-07 11:00:00 Ts debe ser mayor o igual a Td Ts=8.2 - Td=8.5 2023-11-08 10:07:00
1 2019-11-07 13:00:00 Ts debe ser mayor o igual a Td Ts=10.0 - Td=10.1 2023-11-08 10:07:00
1 2019-11-12 11:00:00 Ts debe ser mayor o igual a Td Ts=9.6 - Td=10.3 2023-11-08 10:07:00
1 2019-11-12 12:00:00 Ts debe ser mayor o igual a Td Ts=10.4 - Td=12.4 2023-11-08 10:07:00
1 2019-11-12 13:00:00 Ts debe ser mayor o igual a Td Ts=12.7 - Td=13.8 2023-11-08 10:07:00
1 2019-11-13 11:00:00 Ts debe ser mayor o igual a Td Ts=7.9 - Td=8.4 2023-11-08 10:07:00
1 2019-11-13 12:00:00 Ts debe ser mayor o igual a Td Ts=8.5 - Td=9.2 2023-11-08 10:07:00
1 2019-11-13 13:00:00 Ts debe ser mayor o igual a Td Ts=9.4 - Td=10.0 2023-11-08 10:07:00
1 2019-11-13 14:00:00 Ts debe ser mayor o igual a Td Ts=11.0 - Td=12.2 2023-11-08 10:07:00
1 2019-11-14 11:00:00 Ts debe ser mayor o igual a Td Ts=7.4 - Td=8.8 2023-11-08 10:07:00
1 2019-11-14 12:00:00 Ts debe ser mayor o igual a Td Ts=10.3 - Td=13.2 2023-11-08 10:07:00
1 2019-11-15 07:00:00 Ts debe ser mayor o igual a Td Ts=11.1 - Td=11.4 2023-11-08 10:07:00
1 2019-11-15 11:00:00 Ts debe ser mayor o igual a Td Ts=13.1 - Td=13.8 2023-11-08 10:07:00
1 2019-11-15 19:00:00 Ts debe ser mayor o igual a Td Ts=16.1 - Td=16.2 2023-11-08 10:07:00
1 2019-11-16 08:00:00 Ts debe ser mayor o igual a Td Ts=9.8 - Td=11.2 2023-11-08 10:07:00
1 2019-11-16 09:00:00 Ts debe ser mayor o igual a Td Ts=11.2 - Td=11.9 2023-11-08 10:07:00
1 2019-11-16 10:00:00 Ts debe ser mayor o igual a Td Ts=11.9 - Td=12.0 2023-11-08 10:07:00
1 2019-11-16 11:00:00 Ts debe ser mayor o igual a Td Ts=12.1 - Td=12.7 2023-11-08 10:07:00
1 2019-11-16 12:00:00 Ts debe ser mayor o igual a Td Ts=12.8 - Td=15.7 2023-11-08 10:07:00
1 2019-11-17 09:00:00 Ts debe ser mayor o igual a Td Ts=7.5 - Td=7.8 2023-11-08 10:07:00
1 2019-11-17 11:00:00 Ts debe ser mayor o igual a Td Ts=8.2 - Td=10.1 2023-11-08 10:07:00
1 2019-11-17 12:00:00 Ts debe ser mayor o igual a Td Ts=10.5 - Td=11.0 2023-11-08 10:07:00
1 2019-11-18 11:00:00 Ts debe ser mayor o igual a Td Ts=9.2 - Td=10.4 2023-11-08 10:07:00
1 2019-11-19 10:00:00 Ts debe ser mayor o igual a Td Ts=8.7 - Td=9.2 2023-11-08 10:07:00
1 2019-11-19 11:00:00 Ts debe ser mayor o igual a Td Ts=9.7 - Td=10.7 2023-11-08 10:07:00
1 2019-11-19 12:00:00 Ts debe ser mayor o igual a Td Ts=12.2 - Td=12.3 2023-11-08 10:07:00
1 2019-11-20 06:00:00 Ts debe ser mayor o igual a Td Ts=10.4 - Td=12.2 2023-11-08 10:07:00
1 2019-11-20 10:00:00 Ts debe ser mayor o igual a Td Ts=10.5 - Td=10.9 2023-11-08 10:07:00
1 2019-11-20 11:00:00 Ts debe ser mayor o igual a Td Ts=11.3 - Td=11.6 2023-11-08 10:07:00
1 2019-11-20 12:00:00 Ts debe ser mayor o igual a Td Ts=12.5 - Td=13.3 2023-11-08 10:07:00
1 2019-11-24 05:00:00 Ts debe ser mayor o igual a Td Ts=10.2 - Td=10.3 2023-11-08 10:07:00
1 2019-11-24 06:00:00 Ts debe ser mayor o igual a Td Ts=10.4 - Td=10.7 2023-11-08 10:07:00
1 2019-11-24 07:00:00 Ts debe ser mayor o igual a Td Ts=10.8 - Td=11.0 2023-11-08 10:07:00
1 2019-11-24 10:00:00 Ts debe ser mayor o igual a Td Ts=10.7 - Td=11.0 2023-11-08 10:07:00
1 2019-11-24 11:00:00 Ts debe ser mayor o igual a Td Ts=11.0 - Td=12.1 2023-11-08 10:07:00
1 2019-11-24 12:00:00 Ts debe ser mayor o igual a Td Ts=12.2 - Td=12.4 2023-11-08 10:07:00
1 2019-11-25 10:00:00 Ts debe ser mayor o igual a Td Ts=7.3 - Td=7.5 2023-11-08 10:07:00
1 2019-11-25 11:00:00 Ts debe ser mayor o igual a Td Ts=7.6 - Td=8.7 2023-11-08 10:07:00
1 2019-11-25 12:00:00 Ts debe ser mayor o igual a Td Ts=8.9 - Td=9.4 2023-11-08 10:07:00
1 2019-11-25 18:00:00 Ts debe ser mayor o igual a Td Ts=7.4 - Td=8.5 2023-11-08 10:07:00
1 2019-11-26 04:00:00 Ts debe ser mayor o igual a Td Ts=2.4 - Td=2.5 2023-11-08 10:07:00
1 2019-11-26 09:00:00 Ts debe ser mayor o igual a Td Ts=0.4 - Td=1.3 2023-11-08 10:07:00
1 2019-11-26 10:00:00 Ts debe ser mayor o igual a Td Ts=1.3 - Td=3.2 2023-11-08 10:07:00
1 2019-11-26 11:00:00 Ts debe ser mayor o igual a Td Ts=3.2 - Td=5.6 2023-11-08 10:07:00
1 2019-11-26 11:00:00 HR (Humedad Relativa) es igual a 100% y Ts <> Td 3.2 - 5.6 2023-11-08 10:07:00
1 2019-11-26 12:00:00 Ts debe ser mayor o igual a Td Ts=5.6 - Td=9.2 2023-11-08 10:07:00
1 2019-11-27 05:00:00 Ts debe ser mayor o igual a Td Ts=4.5 - Td=4.8 2023-11-08 10:07:00
1 2019-11-27 07:00:00 Ts debe ser mayor o igual a Td Ts=5.6 - Td=6.1 2023-11-08 10:07:00
1 2019-11-27 11:00:00 Ts debe ser mayor o igual a Td Ts=4.3 - Td=8.6 2023-11-08 10:07:00
1 2019-11-28 10:00:00 Ts debe ser mayor o igual a Td Ts=5.9 - Td=6.0 2023-11-08 10:07:00
1 2019-11-28 11:00:00 Ts debe ser mayor o igual a Td Ts=6.4 - Td=8.5 2023-11-08 10:07:00
1 2019-11-29 08:00:00 Ts debe ser mayor o igual a Td Ts=7.3 - Td=7.5 2023-11-08 10:07:00
1 2019-11-29 09:00:00 Ts debe ser mayor o igual a Td Ts=7.7 - Td=8.4 2023-11-08 10:07:00
1 2019-11-29 10:00:00 Ts debe ser mayor o igual a Td Ts=8.5 - Td=9.2 2023-11-08 10:07:00
1 2019-11-29 11:00:00 Ts debe ser mayor o igual a Td Ts=9.4 - Td=9.6 2023-11-08 10:07:00
1 2019-11-29 13:00:00 Ts debe ser mayor o igual a Td Ts=9.7 - Td=11.2 2023-11-08 10:07:00
1 2019-11-30 10:00:00 Ts debe ser mayor o igual a Td Ts=5.0 - Td=5.2 2023-11-08 10:07:00
1 2019-11-30 11:00:00 Ts debe ser mayor o igual a Td Ts=5.6 - Td=8.2 2023-11-08 10:07:00
1 2019-12-01 11:00:00 Ts debe ser mayor o igual a Td Ts=8.4 - Td=9.4 2023-11-08 10:08:00
1 2019-12-02 11:00:00 Ts debe ser mayor o igual a Td Ts=10.6 - Td=10.8 2023-11-08 10:08:00
1 2019-12-05 11:00:00 Ts debe ser mayor o igual a Td Ts=8.8 - Td=9.4 2023-11-08 10:08:00
1 2019-12-06 09:00:00 Ts debe ser mayor o igual a Td Ts=8.2 - Td=8.4 2023-11-08 10:08:00
1 2019-12-07 11:00:00 Ts debe ser mayor o igual a Td Ts=8.6 - Td=9.1 2023-11-08 10:08:00
1 2019-12-07 12:00:00 Ts debe ser mayor o igual a Td Ts=9.4 - Td=10.3 2023-11-08 10:08:00
1 2019-12-08 10:00:00 Ts debe ser mayor o igual a Td Ts=8.4 - Td=8.7 2023-11-08 10:08:00
1 2019-12-08 11:00:00 Ts debe ser mayor o igual a Td Ts=9.0 - Td=10.9 2023-11-08 10:08:00
1 2019-12-09 07:00:00 Ts debe ser mayor o igual a Td Ts=9.6 - Td=9.9 2023-11-08 10:08:00
1 2019-12-09 11:00:00 Ts debe ser mayor o igual a Td Ts=9.8 - Td=11.8 2023-11-08 10:08:00
1 2019-12-10 11:00:00 Ts debe ser mayor o igual a Td Ts=9.0 - Td=10.1 2023-11-08 10:08:00
1 2019-12-10 12:00:00 Ts debe ser mayor o igual a Td Ts=10.3 - Td=11.2 2023-11-08 10:08:00
1 2019-12-10 13:00:00 Ts debe ser mayor o igual a Td Ts=12.0 - Td=13.0 2023-11-08 10:08:00
1 2019-12-11 10:00:00 Ts debe ser mayor o igual a Td Ts=7.4 - Td=8.8 2023-11-08 10:08:00
1 2019-12-11 11:00:00 Ts debe ser mayor o igual a Td Ts=9.2 - Td=10.6 2023-11-08 10:08:00
1 2019-12-12 11:00:00 Ts debe ser mayor o igual a Td Ts=5.1 - Td=6.3 2023-11-08 10:08:00
1 2019-12-14 10:00:00 Ts debe ser mayor o igual a Td Ts=10.9 - Td=11.2 2023-11-08 10:08:00
1 2019-12-14 11:00:00 Ts debe ser mayor o igual a Td Ts=11.7 - Td=11.8 2023-11-08 10:08:00
1 2019-12-15 11:00:00 Ts debe ser mayor o igual a Td Ts=9.3 - Td=9.5 2023-11-08 10:08:00
1 2019-12-16 12:00:00 Ts debe ser mayor o igual a Td Ts=10.9 - Td=11.0 2023-11-08 10:08:00
1 2019-12-17 11:00:00 Ts debe ser mayor o igual a Td Ts=8.0 - Td=9.0 2023-11-08 10:08:00
1 2019-12-17 12:00:00 Ts debe ser mayor o igual a Td Ts=9.6 - Td=10.6 2023-11-08 10:08:00
Errores del Nivel 376
Informe generado el 13-07-2024 02:06
Requerimiento: RE6001